KR-0465 weather

Busan National University Hospital Heliports
Busan, Busan Gwang'yeogsi, South Korea

Public forecast

Using degrees Celsius for public forecast. Weather courtesy of forecast.io.

Closest aviation weather report (METAR) to Busan National University Hospital Heliports

Closest report is Gimhae International Airport, 6.1 nm (11.4 km) NW. Retrieved 2020/07/06 17:00 UTC (23 minutes ago):

RKPK 061700Z 18007KT 0400 R36/1500 FG BKN002 OVC005 23/21 Q1002 RMK CIG002 SLP028 8/6// 9/8//

Closest aviation forecast (TAF) to Busan National University Hospital Heliports

Forecast is more than 6 hours old.

Closest forecast is Gimhae International Airport, 6.1 nm (11.4 km) NW. Retrieved 2020/07/06 11:21 UTC (6 hours ago):

TAF COR RKPK 061150Z 0611/0712 21006KT 0400 FG BKN002 OVC005 TN22/0621Z TX28/0706Z FM062100 30006KT 0800 FG BKN005 OVC010 BECMG 0622/0623 1600 BR BKN010 BKN020 BECMG 0700/0701 4800 BKN015 BKN030 BECMG 0701/0702 21006KT 9999 NSW SCT015 BKN030